createdAt,value
2019-02-20T00:00:54.572Z,7.70
2019-02-20T00:03:22.046Z,7.70
2019-02-20T00:05:49.496Z,7.70
2019-02-20T00:08:16.979Z,7.70
2019-02-20T00:10:44.445Z,7.70
2019-02-20T00:13:11.908Z,7.70
2019-02-20T00:15:39.455Z,7.70
2019-02-20T00:18:06.936Z,7.80
2019-02-20T00:20:34.397Z,7.70
2019-02-20T00:23:01.868Z,7.70
2019-02-20T00:25:30.110Z,7.70
2019-02-20T00:27:57.572Z,7.70
2019-02-20T00:30:25.040Z,7.80
2019-02-20T00:32:52.613Z,7.80
2019-02-20T00:35:20.062Z,7.80
2019-02-20T00:37:47.709Z,7.70
2019-02-20T00:40:15.150Z,7.80
2019-02-20T00:42:42.607Z,7.70
2019-02-20T00:45:26.194Z,7.70
2019-02-20T00:47:59.543Z,7.70
2019-02-20T00:50:27.015Z,7.70
2019-02-20T00:53:07.163Z,7.80
2019-02-20T00:55:34.774Z,7.70
2019-02-20T00:58:02.236Z,7.80
2019-02-20T01:00:29.686Z,7.70
2019-02-20T01:02:57.245Z,7.70
2019-02-20T01:05:24.809Z,7.70
2019-02-20T01:07:52.285Z,7.70
2019-02-20T01:10:19.723Z,7.70
2019-02-20T01:12:47.220Z,7.60
2019-02-20T01:15:14.764Z,7.60
2019-02-20T01:17:42.237Z,7.60
2019-02-20T01:20:11.209Z,7.60
2019-02-20T01:22:38.664Z,7.60
2019-02-20T01:25:06.131Z,7.60
2019-02-20T01:27:33.577Z,7.60
2019-02-20T01:30:01.072Z,7.60
2019-02-20T01:32:28.519Z,7.60
2019-02-20T01:34:55.977Z,7.60
2019-02-20T01:37:23.456Z,7.60
2019-02-20T01:39:50.925Z,7.60
2019-02-20T01:42:18.379Z,7.60
2019-02-20T01:44:45.998Z,7.60
2019-02-20T01:47:13.449Z,7.60
2019-02-20T01:49:40.944Z,7.60
2019-02-20T01:52:08.438Z,7.60
2019-02-20T01:54:36.005Z,7.60
2019-02-20T01:57:03.774Z,7.60
2019-02-20T01:59:31.329Z,7.60
2019-02-20T02:01:58.788Z,7.60
2019-02-20T02:04:26.269Z,7.60
2019-02-20T02:06:54.486Z,7.60
2019-02-20T02:09:21.943Z,7.60
2019-02-20T02:11:49.407Z,7.70
2019-02-20T02:14:16.869Z,7.70
2019-02-20T02:16:44.383Z,7.70
2019-02-20T02:19:11.944Z,7.60
2019-02-20T02:21:39.406Z,7.70
2019-02-20T02:24:06.895Z,7.60
2019-02-20T02:26:35.143Z,7.60
2019-02-20T02:29:03.517Z,7.60
2019-02-20T02:31:30.977Z,7.60
2019-02-20T02:33:58.443Z,7.60
2019-02-20T02:36:25.925Z,7.60
2019-02-20T02:38:54.157Z,7.60
2019-02-20T02:41:21.621Z,7.60
2019-02-20T02:43:49.077Z,7.60
2019-02-20T02:46:16.547Z,7.60
2019-02-20T02:48:44.054Z,7.60
2019-02-20T02:51:13.031Z,7.60
2019-02-20T02:53:40.502Z,7.60
2019-02-20T02:56:08.067Z,7.60
2019-02-20T02:58:35.630Z,7.60
2019-02-20T03:01:04.300Z,7.60
2019-02-20T03:03:31.802Z,7.60
2019-02-20T03:06:00.076Z,7.50
2019-02-20T03:08:27.520Z,7.50
2019-02-20T03:10:55.100Z,7.60
2019-02-20T03:13:22.652Z,7.50
2019-02-20T03:15:50.110Z,7.60
2019-02-20T03:18:17.577Z,7.50
2019-02-20T03:20:45.139Z,7.60
2019-02-20T03:23:12.601Z,7.60
2019-02-20T03:25:40.054Z,7.60
2019-02-20T03:28:07.506Z,7.50
2019-02-20T03:30:34.971Z,7.50
2019-02-20T03:33:02.432Z,7.50
2019-02-20T03:35:29.888Z,7.50
2019-02-20T03:37:57.345Z,7.50
2019-02-20T03:40:24.805Z,7.50
2019-02-20T03:42:52.594Z,7.50
2019-02-20T03:45:20.060Z,7.50
2019-02-20T03:47:47.532Z,7.40
2019-02-20T03:50:15.763Z,7.40
2019-02-20T03:52:43.236Z,7.40
2019-02-20T03:55:10.734Z,7.40
2019-02-20T03:57:38.202Z,7.40
2019-02-20T04:00:05.766Z,7.40
2019-02-20T04:02:33.232Z,7.40
2019-02-20T04:05:00.779Z,7.40
2019-02-20T04:07:28.240Z,7.40
2019-02-20T04:09:55.700Z,7.30
2019-02-20T04:12:23.157Z,7.40
2019-02-20T04:14:50.610Z,7.30
2019-02-20T04:17:18.067Z,7.30
2019-02-20T04:19:45.518Z,7.30
2019-02-20T04:22:13.026Z,7.30
2019-02-20T04:24:41.290Z,7.40
2019-02-20T04:27:10.278Z,7.30
2019-02-20T04:29:37.780Z,7.30
2019-02-20T04:32:06.003Z,7.40
2019-02-20T04:34:33.474Z,7.30
2019-02-20T04:37:00.939Z,7.40
2019-02-20T04:39:28.420Z,7.40
2019-02-20T04:41:55.989Z,7.40
2019-02-20T04:44:23.445Z,7.40
2019-02-20T04:46:51.000Z,7.40
2019-02-20T04:49:18.455Z,7.30
2019-02-20T04:51:45.931Z,7.30
2019-02-20T04:54:13.973Z,7.30
2019-02-20T04:56:41.023Z,7.30
2019-02-20T04:59:08.484Z,7.30
2019-02-20T05:01:35.950Z,7.30
2019-02-20T05:04:03.780Z,7.30
2019-02-20T05:06:32.010Z,7.30
2019-02-20T05:08:59.493Z,7.30
2019-02-20T05:11:26.992Z,7.30
2019-02-20T05:13:55.172Z,7.20
2019-02-20T05:16:23.423Z,7.20
2019-02-20T05:18:50.884Z,7.20
2019-02-20T05:21:18.351Z,7.10
2019-02-20T05:23:46.284Z,7.10
2019-02-20T05:26:13.742Z,7.10
2019-02-20T05:28:41.956Z,6.90
2019-02-20T05:31:09.429Z,6.90
2019-02-20T05:33:36.904Z,6.90
2019-02-20T05:36:05.146Z,6.80
2019-02-20T05:38:32.602Z,6.80
2019-02-20T05:41:00.061Z,6.70
2019-02-20T05:43:27.559Z,6.70
2019-02-20T05:45:55.752Z,6.70
2019-02-20T05:48:23.984Z,6.70
2019-02-20T05:50:51.457Z,6.70
2019-02-20T05:53:18.911Z,6.60
2019-02-20T05:55:46.369Z,6.70
2019-02-20T05:58:13.829Z,6.70
2019-02-20T06:00:41.312Z,6.70
2019-02-20T06:03:08.804Z,6.70
2019-02-20T06:05:37.051Z,6.70
2019-02-20T06:08:05.184Z,6.70
2019-02-20T06:10:32.645Z,6.70
2019-02-20T06:13:00.153Z,6.70
2019-02-20T06:15:28.076Z,6.60
2019-02-20T06:17:57.513Z,6.60
2019-02-20T06:20:24.957Z,6.60
2019-02-20T06:22:52.448Z,6.60
2019-02-20T06:25:20.016Z,6.60
2019-02-20T06:27:47.508Z,6.70
2019-02-20T06:30:15.802Z,6.60
2019-02-20T06:32:44.032Z,6.60
2019-02-20T06:35:11.538Z,6.60
2019-02-20T06:37:39.771Z,6.60
2019-02-20T06:40:07.242Z,6.60
2019-02-20T06:42:34.827Z,6.50
2019-02-20T06:45:02.307Z,6.60
2019-02-20T06:47:30.588Z,6.50
2019-02-20T06:49:58.017Z,6.50
2019-02-20T06:52:25.460Z,6.60
2019-02-20T06:54:54.228Z,6.60
2019-02-20T06:57:21.194Z,6.50
2019-02-20T06:59:48.704Z,6.50
2019-02-20T07:02:16.145Z,6.50
2019-02-20T07:04:43.600Z,6.50
2019-02-20T07:07:11.941Z,6.50
2019-02-20T07:09:56.337Z,6.50
2019-02-20T07:12:44.568Z,6.50
2019-02-20T07:15:20.012Z,6.60
2019-02-20T07:18:01.261Z,6.60
2019-02-20T07:20:40.672Z,6.50
2019-02-20T07:23:19.887Z,6.60
2019-02-20T07:29:09.027Z,6.60
2019-02-20T07:31:36.595Z,6.60
2019-02-20T07:34:05.502Z,6.60
2019-02-20T07:36:31.551Z,6.60
2019-02-20T07:38:59.024Z,6.60
2019-02-20T07:41:26.501Z,6.60
2019-02-20T07:43:53.974Z,6.60
2019-02-20T07:46:21.460Z,6.70
2019-02-20T07:48:49.038Z,6.70
2019-02-20T07:51:16.489Z,6.80
2019-02-20T07:53:43.948Z,6.70
2019-02-20T07:56:11.502Z,6.80
2019-02-20T07:58:39.078Z,6.80
2019-02-20T08:01:06.530Z,6.80
2019-02-20T08:03:33.977Z,6.90
2019-02-20T08:06:01.559Z,6.90
2019-02-20T08:08:29.025Z,6.90
2019-02-20T08:10:58.028Z,7.00
2019-02-20T08:13:25.506Z,7.00
2019-02-20T08:15:53.715Z,7.10
2019-02-20T08:18:21.169Z,7.10
2019-02-20T08:20:48.642Z,7.20
2019-02-20T08:23:16.101Z,7.20
2019-02-20T08:25:43.553Z,7.20
2019-02-20T08:28:11.061Z,7.20
2019-02-20T08:30:38.523Z,7.20
2019-02-20T08:33:05.990Z,7.30
2019-02-20T08:35:33.466Z,7.30
2019-02-20T08:38:00.983Z,7.30
2019-02-20T08:40:28.454Z,7.30
2019-02-20T08:42:55.913Z,7.30
2019-02-20T08:45:24.098Z,7.30
2019-02-20T08:47:51.558Z,7.40
2019-02-20T08:50:19.041Z,7.40
2019-02-20T08:52:46.503Z,7.40
2019-02-20T08:55:14.074Z,7.40
2019-02-20T08:57:41.631Z,7.60
2019-02-20T09:00:09.865Z,7.60
2019-02-20T09:02:37.327Z,7.70
2019-02-20T09:05:04.832Z,7.70
2019-02-20T09:07:32.390Z,7.80
2019-02-20T09:09:59.848Z,7.90
2019-02-20T09:12:27.476Z,8.00
2019-02-20T09:14:54.942Z,8.00
2019-02-20T09:17:22.411Z,7.90
2019-02-20T09:19:49.877Z,8.00
2019-02-20T09:22:17.332Z,8.10
2019-02-20T09:24:44.781Z,8.10
2019-02-20T09:27:12.289Z,8.30
2019-02-20T09:29:39.759Z,8.40
2019-02-20T09:32:07.226Z,8.70
2019-02-20T09:34:36.212Z,8.80
2019-02-20T09:37:03.663Z,8.80
2019-02-20T09:39:31.139Z,9.00
2019-02-20T09:41:58.614Z,9.20
2019-02-20T09:44:26.073Z,9.20
2019-02-20T09:46:53.537Z,9.30
2019-02-20T09:49:21.018Z,9.30
2019-02-20T09:51:49.276Z,9.10
2019-02-20T09:54:16.733Z,9.10
2019-02-20T09:56:44.195Z,9.10
2019-02-20T09:59:11.638Z,9.10
2019-02-20T10:01:39.109Z,9.10
2019-02-20T10:04:06.584Z,9.00
2019-02-20T10:06:34.053Z,9.20
2019-02-20T10:09:01.510Z,9.40
2019-02-20T10:11:30.473Z,9.50
2019-02-20T10:13:57.959Z,9.50
2019-02-20T10:16:25.415Z,9.50
2019-02-20T10:18:52.882Z,9.80
2019-02-20T10:21:20.485Z,10.00
2019-02-20T10:23:48.710Z,10.50
2019-02-20T10:26:16.176Z,10.50
2019-02-20T10:28:43.653Z,10.60
2019-02-20T10:31:11.118Z,10.80
2019-02-20T10:33:38.678Z,10.90
2019-02-20T10:36:06.133Z,11.00
2019-02-20T10:38:33.595Z,11.20
2019-02-20T10:41:01.091Z,11.20
2019-02-20T10:43:30.167Z,11.10
2019-02-20T10:45:57.738Z,11.10
2019-02-20T10:48:25.249Z,11.30
2019-02-20T10:50:52.715Z,11.30
2019-02-20T10:53:20.168Z,11.30
2019-02-20T10:55:47.636Z,11.50
2019-02-20T10:58:15.147Z,11.40
2019-02-20T11:00:42.702Z,11.60
2019-02-20T11:03:10.988Z,11.50
2019-02-20T11:05:38.453Z,11.40
2019-02-20T11:08:06.722Z,11.10
2019-02-20T11:10:34.182Z,11.10
2019-02-20T11:13:01.669Z,11.30
2019-02-20T11:15:29.897Z,11.50
2019-02-20T11:17:57.442Z,11.40
2019-02-20T11:20:24.945Z,11.60
2019-02-20T11:22:52.426Z,11.60
2019-02-20T11:25:19.979Z,11.50
2019-02-20T11:27:47.448Z,11.30
2019-02-20T11:30:16.724Z,11.20
2019-02-20T11:32:44.229Z,11.10
2019-02-20T11:35:12.462Z,11.10
2019-02-20T11:37:39.925Z,11.00
2019-02-20T11:40:07.401Z,11.00
2019-02-20T11:42:34.873Z,11.20
2019-02-20T11:45:02.339Z,11.20
2019-02-20T11:47:29.808Z,11.40
2019-02-20T11:49:58.077Z,11.50
2019-02-20T11:52:25.548Z,11.50
2019-02-20T11:54:54.541Z,11.80
2019-02-20T11:57:22.018Z,11.80
2019-02-20T11:59:50.231Z,11.60
2019-02-20T12:02:17.749Z,11.60
2019-02-20T12:04:45.309Z,11.60
2019-02-20T12:07:12.763Z,11.50
2019-02-20T12:09:40.233Z,11.40
2019-02-20T12:12:09.418Z,11.40
2019-02-20T12:14:35.969Z,11.40
2019-02-20T12:17:04.248Z,11.40
2019-02-20T12:19:31.825Z,11.40
2019-02-20T12:22:00.125Z,11.60
2019-02-20T12:24:27.583Z,11.60
2019-02-20T12:26:55.116Z,11.70
2019-02-20T12:29:22.582Z,11.80
2019-02-20T12:31:52.502Z,11.70
2019-02-20T12:34:17.625Z,11.60
2019-02-20T12:36:45.200Z,11.70
2019-02-20T12:39:12.647Z,11.70
2019-02-20T12:41:40.350Z,11.50
2019-02-20T12:44:08.488Z,11.30
2019-02-20T12:46:35.946Z,11.30
2019-02-20T12:49:04.410Z,11.40
2019-02-20T12:51:31.875Z,11.30
2019-02-20T12:53:59.337Z,11.30
2019-02-20T12:56:26.815Z,11.30
2019-02-20T12:58:55.800Z,11.20
2019-02-20T13:01:23.257Z,11.20
2019-02-20T13:03:50.834Z,11.20
2019-02-20T13:06:18.289Z,11.20
2019-02-20T13:08:45.755Z,11.30
2019-02-20T13:11:14.552Z,11.20
2019-02-20T13:13:41.493Z,11.20
2019-02-20T13:16:09.752Z,11.20
2019-02-20T13:18:37.234Z,11.10
2019-02-20T13:21:04.697Z,11.10
2019-02-20T13:23:32.147Z,11.10
2019-02-20T13:25:59.614Z,11.20
2019-02-20T13:28:27.090Z,11.20
2019-02-20T13:30:54.558Z,11.30
2019-02-20T13:33:22.014Z,11.10
2019-02-20T13:35:49.581Z,11.30
2019-02-20T13:38:17.147Z,11.30
2019-02-20T13:40:45.507Z,11.20
2019-02-20T13:43:12.959Z,11.20
2019-02-20T13:45:40.421Z,11.20
2019-02-20T13:48:07.884Z,11.20
2019-02-20T13:50:35.387Z,11.20
2019-02-20T13:53:03.867Z,11.20
2019-02-20T13:55:34.511Z,11.20
2019-02-20T13:57:59.592Z,11.20
2019-02-20T14:00:27.065Z,11.20
2019-02-20T14:02:54.638Z,11.30
2019-02-20T14:05:22.915Z,11.30
2019-02-20T14:07:51.195Z,11.30
2019-02-20T14:10:19.652Z,11.20
2019-02-20T14:12:46.973Z,11.20
2019-02-20T14:15:14.496Z,11.20
2019-02-20T14:17:42.944Z,11.30
2019-02-20T14:20:10.451Z,11.30
2019-02-20T14:22:38.723Z,11.30
2019-02-20T14:25:07.085Z,11.20
2019-02-20T14:27:35.289Z,11.20
2019-02-20T14:30:05.252Z,11.10
2019-02-20T14:32:32.708Z,11.20
2019-02-20T14:35:00.331Z,11.10
2019-02-20T14:37:27.834Z,11.10
2019-02-20T14:39:56.029Z,11.10
2019-02-20T14:42:23.492Z,11.10
2019-02-20T14:44:50.971Z,11.10
2019-02-20T14:47:18.457Z,11.10
2019-02-20T14:49:45.926Z,11.20
2019-02-20T14:52:13.383Z,11.10
2019-02-20T14:54:40.856Z,11.00
2019-02-20T14:57:08.429Z,11.00
2019-02-20T14:59:36.693Z,10.90
2019-02-20T15:02:04.171Z,10.90
2019-02-20T15:04:32.404Z,10.90
2019-02-20T15:06:59.952Z,10.90
2019-02-20T15:09:27.414Z,10.90
2019-02-20T15:11:54.877Z,10.90
2019-02-20T15:14:22.342Z,10.90
2019-02-20T15:16:49.832Z,10.90
2019-02-20T15:19:17.297Z,10.90
2019-02-20T15:21:44.775Z,10.90
2019-02-20T15:24:12.240Z,10.90
2019-02-20T15:26:39.700Z,10.90
2019-02-20T15:29:07.182Z,10.80
2019-02-20T15:31:34.651Z,10.80
2019-02-20T15:34:02.127Z,10.80
2019-02-20T15:36:29.617Z,10.80
2019-02-20T15:38:57.094Z,10.80
2019-02-20T15:41:24.629Z,10.80
2019-02-20T15:43:52.092Z,10.70
2019-02-20T15:46:19.557Z,10.70
2019-02-20T15:48:47.059Z,10.70
2019-02-20T15:51:14.620Z,10.70
2019-02-20T15:53:42.174Z,10.60
2019-02-20T15:56:09.632Z,10.70
2019-02-20T15:58:37.106Z,10.60
2019-02-20T16:01:05.685Z,10.60
2019-02-20T16:03:32.133Z,10.60
2019-02-20T16:05:59.615Z,10.60
2019-02-20T16:08:27.856Z,10.50
2019-02-20T16:10:55.376Z,10.50
2019-02-20T16:13:22.806Z,10.50
2019-02-20T16:15:50.274Z,10.40
2019-02-20T16:18:19.927Z,10.40
2019-02-20T16:20:45.584Z,10.40
2019-02-20T16:23:13.042Z,10.40
2019-02-20T16:25:40.614Z,10.40
2019-02-20T16:28:08.088Z,10.40
2019-02-20T16:30:36.354Z,10.40
2019-02-20T16:33:03.816Z,10.40
2019-02-20T16:35:31.588Z,10.40
2019-02-20T16:37:59.153Z,10.40
2019-02-20T16:40:26.640Z,10.50
2019-02-20T16:42:54.875Z,10.40
2019-02-20T16:45:22.333Z,10.40
2019-02-20T16:47:49.810Z,10.40
2019-02-20T16:50:17.287Z,10.40
2019-02-20T16:52:44.770Z,10.40
2019-02-20T16:55:19.409Z,10.30
2019-02-20T16:57:40.469Z,10.30
2019-02-20T17:00:07.947Z,10.30
2019-02-20T17:02:35.420Z,10.30
2019-02-20T17:05:04.291Z,10.40
2019-02-20T17:07:31.778Z,10.40
2019-02-20T17:09:59.996Z,10.70
2019-02-20T17:12:27.495Z,10.70
2019-02-20T17:14:54.953Z,10.80
2019-02-20T17:17:22.428Z,10.60
2019-02-20T17:19:49.902Z,10.60
2019-02-20T17:22:17.365Z,10.40
2019-02-20T17:24:45.633Z,10.30
2019-02-20T17:27:13.163Z,10.30
2019-02-20T17:29:40.688Z,10.20
2019-02-20T17:32:08.941Z,10.20
2019-02-20T17:34:37.220Z,10.20
2019-02-20T17:37:06.204Z,10.20
2019-02-20T17:39:33.781Z,10.20
2019-02-20T17:42:02.049Z,10.20
2019-02-20T17:44:29.511Z,10.20
2019-02-20T17:46:56.987Z,10.20
2019-02-20T17:49:24.555Z,10.10
2019-02-20T17:51:52.019Z,10.10
2019-02-20T17:54:19.592Z,10.10
2019-02-20T17:56:48.696Z,10.10
2019-02-20T17:59:16.204Z,10.10
2019-02-20T18:01:43.704Z,10.10
2019-02-20T18:04:11.166Z,10.00
2019-02-20T18:06:38.720Z,10.00
2019-02-20T18:09:06.204Z,10.00
2019-02-20T18:11:33.756Z,10.00
2019-02-20T18:14:01.236Z,9.90
2019-02-20T18:16:28.709Z,9.90
2019-02-20T18:18:56.981Z,9.90
2019-02-20T18:21:25.249Z,9.80
2019-02-20T18:23:54.205Z,9.90
2019-02-20T18:26:21.686Z,9.90
2019-02-20T18:28:49.160Z,9.80
2019-02-20T18:31:16.611Z,9.80
2019-02-20T18:33:44.072Z,9.80
2019-02-20T18:36:11.801Z,9.80
2019-02-20T18:38:39.139Z,9.70
2019-02-20T18:41:07.353Z,9.60
2019-02-20T18:43:34.864Z,9.60
2019-02-20T18:46:02.348Z,9.60
2019-02-20T18:48:30.607Z,9.50
2019-02-20T18:50:58.061Z,9.50
2019-02-20T18:53:25.511Z,9.50
2019-02-20T18:55:52.971Z,9.50
2019-02-20T18:58:20.429Z,9.50
2019-02-20T19:00:47.927Z,9.50
2019-02-20T19:03:15.404Z,9.40
2019-02-20T19:05:43.680Z,9.30
2019-02-20T19:08:23.894Z,9.30
2019-02-20T19:10:51.369Z,9.30
2019-02-20T19:13:18.899Z,9.30
2019-02-20T19:15:51.903Z,9.30
2019-02-20T19:18:31.169Z,9.30
2019-02-20T19:21:10.241Z,9.30
2019-02-20T19:26:40.114Z,9.20
2019-02-20T19:29:33.903Z,9.20
2019-02-20T19:35:12.926Z,9.10
2019-02-20T19:40:51.732Z,9.20
2019-02-20T19:43:27.700Z,9.20
2019-02-20T19:46:00.849Z,9.20
2019-02-20T19:51:28.536Z,9.00
2019-02-20T19:53:59.578Z,9.00
2019-02-20T20:00:01.978Z,9.00
2019-02-20T20:02:50.955Z,8.90
2019-02-20T20:05:22.516Z,8.90
2019-02-20T20:07:54.459Z,8.80
2019-02-20T20:10:33.995Z,8.90
2019-02-20T20:15:57.484Z,8.70
2019-02-20T20:18:28.371Z,8.60
2019-02-20T20:20:56.651Z,8.60
2019-02-20T20:23:31.720Z,8.60
2019-02-20T20:26:14.730Z,8.60
2019-02-20T20:28:49.899Z,8.50
2019-02-20T20:31:19.193Z,8.50
2019-02-20T20:33:53.321Z,8.50
2019-02-20T20:36:42.622Z,8.50
2019-02-20T20:39:16.658Z,8.50
2019-02-20T20:42:13.886Z,8.50
2019-02-20T20:48:19.698Z,8.80
2019-02-20T20:50:54.941Z,8.80
2019-02-20T20:53:28.394Z,8.70
2019-02-20T20:56:21.437Z,8.60
2019-02-20T20:59:17.167Z,8.50
2019-02-20T21:01:37.542Z,8.50
2019-02-20T21:04:19.376Z,8.50
2019-02-20T21:10:16.881Z,8.40
2019-02-20T21:13:03.921Z,8.40
2019-02-20T21:15:39.914Z,8.20
2019-02-20T21:18:28.947Z,8.10
2019-02-20T21:21:06.118Z,8.10
2019-02-20T21:23:42.276Z,8.00
2019-02-20T21:26:18.365Z,8.10
2019-02-20T21:29:07.327Z,8.00
2019-02-20T21:34:52.219Z,8.00
2019-02-20T21:37:26.465Z,8.00
2019-02-20T21:39:56.873Z,8.00
2019-02-20T21:45:30.095Z,7.90
2019-02-20T21:48:15.003Z,7.90
2019-02-20T21:50:47.941Z,8.00
2019-02-20T21:53:21.378Z,8.00
2019-02-20T21:56:06.299Z,8.00
2019-02-20T21:59:03.347Z,8.00
2019-02-20T22:01:42.408Z,7.90
2019-02-20T22:07:16.172Z,7.90
2019-02-20T22:09:57.682Z,8.00
2019-02-20T22:15:25.426Z,7.90
2019-02-20T22:18:13.303Z,7.90
2019-02-20T22:20:44.330Z,7.80
2019-02-20T22:26:13.867Z,7.80
2019-02-20T22:31:43.085Z,7.70
2019-02-20T22:37:49.987Z,7.70
2019-02-20T22:40:37.058Z,7.70
2019-02-20T22:43:36.009Z,7.70
2019-02-20T22:46:05.327Z,7.60
2019-02-20T22:48:34.487Z,7.60
2019-02-20T22:51:10.691Z,7.60
2019-02-20T22:56:50.085Z,7.40
2019-02-20T22:59:21.377Z,7.50
2019-02-20T23:02:07.127Z,7.40
2019-02-20T23:04:37.742Z,7.30
2019-02-20T23:07:13.663Z,7.30
2019-02-20T23:09:52.559Z,7.30
2019-02-20T23:12:21.089Z,7.30
2019-02-20T23:14:52.946Z,7.30
2019-02-20T23:17:20.413Z,7.20
2019-02-20T23:19:47.872Z,7.30
2019-02-20T23:22:15.908Z,7.30
2019-02-20T23:24:43.410Z,7.40
2019-02-20T23:27:10.928Z,7.50
2019-02-20T23:29:39.183Z,7.40
2019-02-20T23:32:06.650Z,7.40
2019-02-20T23:34:34.143Z,7.40
2019-02-20T23:37:01.698Z,7.40
2019-02-20T23:39:29.129Z,7.40
2019-02-20T23:41:56.605Z,7.40
2019-02-20T23:44:24.945Z,7.40
2019-02-20T23:46:52.580Z,7.40
2019-02-20T23:49:20.094Z,7.40
2019-02-20T23:51:47.545Z,7.40
2019-02-20T23:54:15.109Z,7.50
2019-02-20T23:56:42.664Z,7.40
2019-02-20T23:59:10.115Z,7.50
